Time;durP1;ratioP1;P1;durP2;ratioP2;P2;SDS_P1;SDS_P2;PMS_P1;PMS_P2;Temp;Humidity;BMP_temperature;BMP_pressure;BME280_temperature;BME280_humidity;BME280_pressure;Samples;Min_cycle;Max_cycle;Signal;HPM_P1;HPM_P2
2021/04/01 00:03:20;;;;;;;13.65;6.47;;;7.30;99.90;;;;;;8277940;28;20084;-68
2021/04/01 00:07:20;;;;;;;19.42;7.30;;;7.40;99.90;;;;;;8294263;28;20105;-68
2021/04/01 00:11:21;;;;;;;12.90;6.80;;;7.40;99.90;;;;;;8277609;28;20025;-69
2021/04/01 00:15:22;;;;;;;16.80;6.82;;;7.30;99.90;;;;;;8299890;28;20028;-67
2021/04/01 00:19:22;;;;;;;11.73;6.88;;;6.90;99.90;;;;;;8300089;28;20030;-69
2021/04/01 00:23:23;;;;;;;15.25;7.07;;;6.70;99.90;;;;;;8301469;28;20026;-69
2021/04/01 00:27:24;;;;;;;14.60;6.50;;;7.00;99.90;;;;;;8302086;28;20048;-69
2021/04/01 00:31:24;;;;;;;16.25;6.43;;;7.00;99.90;;;;;;8301137;28;20123;-69
2021/04/01 00:35:25;;;;;;;14.82;7.10;;;7.10;99.90;;;;;;8281894;28;20030;-69
2021/04/01 00:39:25;;;;;;;12.43;5.75;;;6.80;99.90;;;;;;8281936;28;20037;-69
2021/04/01 00:43:26;;;;;;;19.90;6.95;;;6.70;99.90;;;;;;8281698;28;20057;-68
2021/04/01 00:47:33;;;;;;;11.82;6.15;;;6.60;99.90;;;;;;8299472;28;20051;-68
2021/04/01 00:51:33;;;;;;;14.93;6.75;;;6.60;99.90;;;;;;8299439;28;20025;-69
2021/04/01 00:55:34;;;;;;;18.23;7.18;;;6.90;99.90;;;;;;8299480;28;20041;-68
2021/04/01 00:59:34;;;;;;;15.80;6.75;;;7.00;99.90;;;;;;8299526;28;20025;-69
2021/04/01 01:03:35;;;;;;;19.60;7.00;;;6.80;99.90;;;;;;8298956;28;20021;-68
2021/04/01 01:07:36;;;;;;;17.05;7.35;;;6.90;99.90;;;;;;8281916;28;20029;-68
2021/04/01 01:11:38;;;;;;;15.50;6.95;;;7.00;99.90;;;;;;8279949;28;20030;-67
2021/04/01 01:15:40;;;;;;;19.40;8.02;;;6.90;99.90;;;;;;8298995;28;20052;-68
2021/04/01 01:19:41;;;;;;;18.63;7.78;;;6.80;99.90;;;;;;8298672;28;20034;-69
2021/04/01 01:23:42;;;;;;;22.58;8.90;;;6.50;99.90;;;;;;8297636;28;20404;-69
2021/04/01 01:27:42;;;;;;;14.00;7.43;;;6.40;99.90;;;;;;8296072;28;20097;-68
2021/04/01 01:31:49;;;;;;;13.27;7.65;;;6.30;99.90;;;;;;8298474;28;20036;-68
2021/04/01 01:35:52;;;;;;;17.08;8.20;;;6.50;99.90;;;;;;8276364;28;20079;-66
2021/04/01 01:39:53;;;;;;;19.90;8.18;;;6.50;99.90;;;;;;8289021;28;20017;-68
2021/04/01 01:43:56;;;;;;;17.73;8.27;;;6.30;99.90;;;;;;8297763;28;20057;-69
2021/04/01 01:47:57;;;;;;;17.17;7.97;;;6.10;99.90;;;;;;8297468;28;20025;-68
2021/04/01 01:51:58;;;;;;;14.57;7.90;;;6.20;99.90;;;;;;8297669;28;20065;-68
2021/04/01 01:55:58;;;;;;;17.40;8.10;;;6.50;99.90;;;;;;8296745;28;20052;-68
2021/04/01 02:00:00;;;;;;;16.67;7.90;;;6.40;99.90;;;;;;8280951;28;20040;-69
2021/04/01 02:04:03;;;;;;;12.93;7.40;;;6.30;99.90;;;;;;8279979;28;20538;-68
2021/04/01 02:08:05;;;;;;;17.85;8.18;;;6.20;99.90;;;;;;8280530;28;20026;-68
2021/04/01 02:12:06;;;;;;;20.20;8.80;;;6.30;99.90;;;;;;8279303;28;20511;-68
2021/04/01 02:16:07;;;;;;;17.25;8.75;;;6.20;99.90;;;;;;8296597;28;20026;-69
2021/04/01 02:20:10;;;;;;;20.85;8.35;;;6.20;99.90;;;;;;8279284;28;20026;-69
2021/04/01 02:24:11;;;;;;;18.27;8.15;;;6.10;99.90;;;;;;8297274;28;20053;-67
2021/04/01 02:28:13;;;;;;;19.73;8.25;;;6.00;99.90;;;;;;8297156;28;20496;-69
2021/04/01 02:32:14;;;;;;;17.17;8.95;;;5.90;99.90;;;;;;8278636;28;20397;-68
2021/04/01 02:36:15;;;;;;;14.40;8.15;;;6.00;99.90;;;;;;8278239;28;20036;-69
2021/04/01 02:40:16;;;;;;;15.55;7.65;;;6.00;99.90;;;;;;8279263;28;20370;-69
2021/04/01 02:44:17;;;;;;;15.82;8.48;;;6.00;99.90;;;;;;8295725;28;20033;-68
2021/04/01 02:48:17;;;;;;;17.65;8.32;;;6.20;99.90;;;;;;8278685;28;20040;-67
2021/04/01 02:52:18;;;;;;;19.65;8.52;;;5.90;99.90;;;;;;8295900;28;20042;-68
2021/04/01 02:56:18;;;;;;;20.42;8.52;;;5.80;99.90;;;;;;8278076;28;20022;-68
2021/04/01 03:00:23;;;;;;;23.48;9.35;;;5.80;99.90;;;;;;8295678;28;20551;-68
2021/04/01 03:04:23;;;;;;;15.52;7.80;;;6.00;99.90;;;;;;8295689;28;20026;-69
2021/04/01 03:08:24;;;;;;;19.20;8.57;;;6.10;99.90;;;;;;8278049;28;20404;-69
2021/04/01 03:12:25;;;;;;;19.42;7.88;;;6.10;99.90;;;;;;8277498;28;20025;-69
2021/04/01 03:16:25;;;;;;;16.27;8.32;;;6.00;99.90;;;;;;8277419;28;20045;-69
2021/04/01 03:20:26;;;;;;;19.83;8.20;;;5.90;99.90;;;;;;8295166;28;20022;-69
2021/04/01 03:24:26;;;;;;;21.92;8.63;;;5.90;99.90;;;;;;8294956;28;20084;-67
2021/04/01 03:28:27;;;;;;;17.20;8.25;;;5.70;99.90;;;;;;8295016;28;20026;-68
2021/04/01 03:32:27;;;;;;;18.13;8.57;;;5.60;99.90;;;;;;8277321;28;20483;-68
2021/04/01 03:36:28;;;;;;;20.55;8.68;;;6.00;99.90;;;;;;8294822;28;20026;-69
2021/04/01 03:40:29;;;;;;;20.50;9.50;;;5.70;99.90;;;;;;8294860;28;20060;-68
2021/04/01 03:44:29;;;;;;;15.70;8.55;;;5.50;99.90;;;;;;8277085;28;20373;-69
2021/04/01 03:48:30;;;;;;;18.13;8.85;;;5.40;99.90;;;;;;8299401;28;20030;-69
2021/04/01 03:52:31;;;;;;;16.77;8.50;;;5.20;99.90;;;;;;8283453;28;20517;-67
2021/04/01 03:56:31;;;;;;;17.75;9.23;;;5.20;99.90;;;;;;8300720;28;20022;-69
2021/04/01 04:00:34;;;;;;;22.60;10.77;;;5.30;99.90;;;;;;8301463;28;20026;-69
2021/04/01 04:05:00;;;;;;;23.70;10.20;;;5.20;99.90;;;;;;8300716;28;20030;-69
2021/04/01 04:13:24;;;;;;;17.63;8.85;;;5.20;99.90;;;;;;8301032;28;20080;-69
2021/04/01 04:17:24;;;;;;;14.48;8.02;;;5.30;99.90;;;;;;8282603;28;20108;-69
2021/04/01 04:21:25;;;;;;;19.33;8.90;;;5.30;99.90;;;;;;8300380;28;20030;-69
2021/04/01 04:25:26;;;;;;;16.17;7.50;;;5.40;99.90;;;;;;8298571;28;20132;-68
2021/04/01 04:29:27;;;;;;;15.02;7.63;;;6.70;99.90;;;;;;8298030;28;20330;-69
2021/04/01 04:33:29;;;;;;;14.18;6.75;;;8.30;99.90;;;;;;8298707;28;20026;-67
2021/04/01 04:37:29;;;;;;;16.08;8.18;;;9.10;99.90;;;;;;8298210;28;20061;-68
2021/04/01 04:41:30;;;;;;;12.50;6.45;;;8.80;99.90;;;;;;8299911;28;20030;-67
2021/04/01 04:45:30;;;;;;;16.17;6.55;;;8.40;99.90;;;;;;8299484;28;20489;-69
2021/04/01 04:49:31;;;;;;;14.07;6.50;;;8.40;99.90;;;;;;8281977;28;20030;-69
2021/04/01 04:53:32;;;;;;;13.88;6.63;;;9.10;99.90;;;;;;8298425;28;20045;-69
2021/04/01 05:05:53;;;;;;;16.15;7.53;;;6.50;99.90;;;;;;8296844;28;20096;-68
2021/04/01 05:09:53;;;;;;;17.38;6.88;;;6.10;99.90;;;;;;8297287;28;20021;-69
2021/04/01 05:13:54;;;;;;;13.60;7.15;;;5.90;99.90;;;;;;8296610;28;20151;-68
2021/04/01 05:18:04;;;;;;;20.88;7.57;;;6.10;99.90;;;;;;8279872;28;20069;-68
2021/04/01 05:30:09;;;;;;;12.00;7.50;;;6.00;99.90;;;;;;8290210;28;20025;-66
2021/04/01 05:34:10;;;;;;;15.88;7.13;;;6.10;99.90;;;;;;8292058;28;20026;-66
2021/04/01 05:38:10;;;;;;;13.10;7.18;;;6.00;99.90;;;;;;8295788;28;20022;-67
2021/04/01 05:42:13;;;;;;;13.80;7.47;;;6.00;99.90;;;;;;8296450;28;20034;-67
2021/04/01 05:46:23;;;;;;;17.98;7.45;;;6.10;99.90;;;;;;8297061;28;20108;-67
2021/04/01 06:03:39;;;;;;;14.25;8.43;;;7.10;99.90;;;;;;8294809;28;20032;-67
2021/04/01 06:07:42;;;;;;;14.90;7.78;;;7.30;99.90;;;;;;8279454;28;20044;-66
2021/04/01 06:11:46;;;;;;;17.13;7.97;;;7.40;99.90;;;;;;8295497;28;20029;-67
2021/04/01 06:15:48;;;;;;;14.27;7.18;;;7.60;99.90;;;;;;8295294;28;20014;-67
2021/04/01 06:19:55;;;;;;;16.67;8.25;;;7.80;99.90;;;;;;8294834;28;20098;-67
2021/04/01 06:24:13;;;;;;;14.30;7.20;;;8.10;99.90;;;;;;8285194;28;20185;-66
2021/04/01 06:28:16;;;;;;;17.15;7.30;;;8.30;99.90;;;;;;8290254;28;20045;-67
2021/04/01 06:32:24;;;;;;;17.58;8.13;;;8.70;99.90;;;;;;8274045;28;20022;-66
2021/04/01 06:36:27;;;;;;;17.50;8.82;;;8.90;99.90;;;;;;8267938;28;20053;-67
2021/04/01 06:40:44;;;;;;;16.60;8.23;;;9.20;99.90;;;;;;8277174;28;20050;-67
2021/04/01 06:44:54;;;;;;;12.50;7.28;;;9.60;99.90;;;;;;8276406;28;20393;-67
2021/04/01 06:49:25;;;;;;;11.30;7.10;;;9.80;99.90;;;;;;8270058;28;20057;-66
2021/04/01 06:53:27;;;;;;;12.65;6.40;;;10.10;99.90;;;;;;8290893;28;20030;-67
2021/04/01 07:01:54;;;;;;;12.38;6.00;;;10.50;99.90;;;;;;8291814;28;20110;-66
2021/04/01 07:06:02;;;;;;;11.73;5.60;;;10.80;99.90;;;;;;8276028;28;20030;-67
2021/04/01 07:14:27;;;;;;;11.27;5.28;;;11.40;99.90;;;;;;8290963;28;20053;-67
2021/04/01 07:18:53;;;;;;;12.25;5.85;;;11.70;99.90;;;;;;8274176;28;20060;-67
2021/04/01 07:44:52;;;;;;;10.20;5.40;;;14.20;99.90;;;;;;8283072;28;20037;-68
2021/04/01 07:48:57;;;;;;;16.00;5.30;;;15.10;99.90;;;;;;8273054;28;20516;-67
2021/04/01 07:53:00;;;;;;;13.20;4.25;;;15.70;99.90;;;;;;8293511;28;20154;-68
2021/04/01 07:57:18;;;;;;;11.00;5.30;;;16.20;99.90;;;;;;8293002;28;20475;-68
2021/04/01 08:01:40;;;;;;;9.38;4.45;;;16.50;99.90;;;;;;8276699;28;20388;-68
2021/04/01 08:05:42;;;;;;;12.10;4.70;;;16.80;99.90;;;;;;8293398;28;20092;-68
2021/04/01 08:09:51;;;;;;;16.45;4.70;;;16.80;97.40;;;;;;8290603;28;20026;-68
2021/04/01 08:14:19;;;;;;;13.48;4.28;;;17.00;97.80;;;;;;8274232;28;20496;-68
2021/04/01 08:22:27;;;;;;;12.40;4.20;;;17.50;93.60;;;;;;8292625;28;20030;-68
2021/04/01 08:35:00;;;;;;;11.40;4.38;;;17.30;92.50;;;;;;8292192;28;20036;-68
2021/04/01 08:39:00;;;;;;;13.55;4.80;;;17.30;92.30;;;;;;8280260;28;20037;-68
2021/04/01 08:43:07;;;;;;;9.73;4.60;;;17.50;92.00;;;;;;8294845;28;20030;-68
2021/04/01 08:47:27;;;;;;;9.68;4.65;;;17.90;91.60;;;;;;8276370;28;20456;-68
2021/04/01 08:52:12;;;;;;;10.55;4.18;;;18.60;92.20;;;;;;8278228;28;20073;-68
2021/04/01 08:56:22;;;;;;;8.35;3.75;;;19.40;85.10;;;;;;8295285;28;20048;-68
2021/04/01 09:00:27;;;;;;;7.53;4.15;;;19.80;82.70;;;;;;8296515;28;20427;-68
2021/04/01 09:04:30;;;;;;;12.23;4.22;;;19.50;81.20;;;;;;8277078;28;20018;-68
2021/04/01 09:08:35;;;;;;;8.82;3.33;;;19.30;80.00;;;;;;8279046;28;20038;-67
2021/04/01 09:12:51;;;;;;;9.18;3.38;;;19.50;79.60;;;;;;8296344;28;20026;-68
2021/04/01 09:17:13;;;;;;;10.55;3.67;;;19.00;78.40;;;;;;8277457;28;20455;-67
2021/04/01 09:21:14;;;;;;;7.53;3.35;;;18.90;78.70;;;;;;8279977;28;20029;-67
2021/04/01 09:25:16;;;;;;;9.82;3.55;;;19.20;78.60;;;;;;8295877;28;20041;-68
2021/04/01 09:29:17;;;;;;;8.15;3.17;;;19.10;77.90;;;;;;8283718;28;20081;-68
2021/04/01 09:33:32;;;;;;;11.77;3.80;;;19.40;75.60;;;;;;8273022;28;20034;-69
2021/04/01 09:37:33;;;;;;;9.52;4.25;;;19.50;76.40;;;;;;8289537;28;20488;-68
2021/04/01 09:41:35;;;;;;;9.25;3.70;;;19.70;73.20;;;;;;8295300;28;20026;-67
2021/04/01 09:45:36;;;;;;;13.95;4.90;;;20.10;79.90;;;;;;8286838;28;20041;-68
2021/04/01 09:49:46;;;;;;;9.40;5.10;;;20.30;76.50;;;;;;8283855;28;20675;-68
2021/04/01 09:53:51;;;;;;;12.30;4.93;;;20.30;72.30;;;;;;8296053;28;20033;-68
2021/04/01 09:57:54;;;;;;;14.10;8.15;;;20.00;72.10;;;;;;8272868;28;20523;-68
2021/04/01 10:02:08;;;;;;;17.05;9.20;;;20.00;72.40;;;;;;8295983;28;20037;-68
2021/04/01 10:06:09;;;;;;;11.52;4.90;;;20.40;73.40;;;;;;8283256;28;20554;-68
2021/04/01 10:10:11;;;;;;;13.10;5.28;;;20.70;75.10;;;;;;8294742;28;20041;-67
2021/04/01 10:14:12;;;;;;;13.57;6.15;;;20.50;74.70;;;;;;8291835;28;20026;-68
2021/04/01 10:18:24;;;;;;;10.98;5.70;;;20.90;70.20;;;;;;8290715;28;20030;-68
2021/04/01 10:22:29;;;;;;;11.10;5.53;;;21.10;71.00;;;;;;8292165;28;20109;-68
2021/04/01 10:26:42;;;;;;;17.33;6.30;;;21.10;69.60;;;;;;8292033;28;20455;-68
2021/04/01 10:30:45;;;;;;;13.75;5.55;;;21.10;70.80;;;;;;8272297;28;20022;-68
2021/04/01 10:34:52;;;;;;;11.68;5.63;;;21.70;70.40;;;;;;8293467;28;20088;-68
2021/04/01 10:39:08;;;;;;;14.57;6.03;;;22.00;69.00;;;;;;8293966;28;20157;-69
2021/04/01 10:43:10;;;;;;;12.85;5.28;;;22.60;67.80;;;;;;8295258;28;20034;-69
2021/04/01 10:47:15;;;;;;;10.43;5.45;;;22.70;65.20;;;;;;8295153;28;20026;-68
2021/04/01 10:51:17;;;;;;;14.80;7.13;;;22.70;65.20;;;;;;8276994;28;20097;-68
2021/04/01 10:55:18;;;;;;;15.50;7.05;;;22.90;59.50;;;;;;8293707;28;20079;-68
2021/04/01 10:59:36;;;;;;;17.70;6.22;;;23.10;60.80;;;;;;8294597;28;20030;-68
2021/04/01 11:03:43;;;;;;;12.50;6.13;;;23.60;59.10;;;;;;8294882;28;20026;-69
2021/04/01 11:07:48;;;;;;;13.98;6.35;;;25.40;54.50;;;;;;8292288;28;20034;-69
2021/04/01 11:12:11;;;;;;;13.73;6.25;;;28.30;52.00;;;;;;8287855;28;20040;-66
2021/04/01 11:16:12;;;;;;;15.55;7.75;;;30.50;44.90;;;;;;8292170;28;20116;-66
2021/04/01 11:20:16;;;;;;;15.18;6.13;;;30.10;42.90;;;;;;8290964;28;20064;-66
2021/04/01 11:24:33;;;;;;;14.48;6.40;;;29.50;43.60;;;;;;8292796;28;20061;-66
2021/04/01 11:28:39;;;;;;;14.95;7.30;;;29.80;42.20;;;;;;8293054;28;20022;-69
2021/04/01 11:32:53;;;;;;;12.25;6.40;;;30.50;41.30;;;;;;8290231;28;20444;-68
2021/04/01 11:36:53;;;;;;;11.63;6.43;;;29.80;41.00;;;;;;8289205;28;20025;-66
2021/04/01 11:40:56;;;;;;;13.85;6.43;;;29.10;41.70;;;;;;8267386;28;20105;-66
2021/04/01 11:45:07;;;;;;;12.55;6.60;;;29.70;41.90;;;;;;8290483;28;20034;-66
2021/04/01 11:49:09;;;;;;;14.25;7.07;;;29.00;40.80;;;;;;8287161;28;20076;-66
2021/04/01 11:53:10;;;;;;;11.70;6.25;;;30.00;40.80;;;;;;8291506;28;20030;-66
2021/04/01 11:57:30;;;;;;;13.95;6.57;;;31.60;39.10;;;;;;8283525;28;20022;-66
2021/04/01 12:01:33;;;;;;;14.90;6.97;;;31.20;38.40;;;;;;8291589;28;20028;-66
2021/04/01 12:05:41;;;;;;;12.35;6.30;;;32.20;37.10;;;;;;8274938;28;20052;-66
2021/04/01 12:09:46;;;;;;;12.90;5.82;;;34.20;36.00;;;;;;8297541;28;20435;-66
2021/04/01 12:13:46;;;;;;;11.50;6.32;;;33.10;33.10;;;;;;8298608;28;20037;-66
2021/04/01 12:17:47;;;;;;;11.57;6.10;;;31.70;34.50;;;;;;8298247;28;20511;-66
2021/04/01 12:21:47;;;;;;;12.68;6.88;;;31.80;36.00;;;;;;8281203;28;20476;-66
2021/04/01 12:25:49;;;;;;;15.07;6.85;;;33.60;35.10;;;;;;8297598;28;20026;-66
2021/04/01 12:29:50;;;;;;;17.02;7.47;;;33.80;32.00;;;;;;8297685;28;20400;-66
2021/04/01 12:33:51;;;;;;;11.90;6.00;;;33.30;34.80;;;;;;8279173;28;20041;-66
2021/04/01 12:37:59;;;;;;;9.70;6.00;;;33.80;34.60;;;;;;8297208;28;20018;-66
2021/04/01 12:42:00;;;;;;;13.05;6.70;;;33.90;32.60;;;;;;8298077;28;20025;-66
2021/04/01 12:46:01;;;;;;;13.32;6.75;;;34.30;32.80;;;;;;8294452;28;20038;-66
2021/04/01 12:50:02;;;;;;;11.25;5.18;;;33.40;34.90;;;;;;8269320;28;20570;-66
2021/04/01 12:54:05;;;;;;;10.48;5.25;;;33.30;34.30;;;;;;8295441;28;20046;-66
2021/04/01 12:58:11;;;;;;;10.90;5.57;;;32.30;34.20;;;;;;8298960;28;20026;-66
2021/04/01 13:02:14;;;;;;;10.20;5.20;;;31.40;35.00;;;;;;8298518;28;20034;-66
2021/04/01 13:06:17;;;;;;;11.02;4.75;;;31.20;36.30;;;;;;8297592;28;20435;-66
2021/04/01 13:14:22;;;;;;;12.68;5.88;;;32.90;32.70;;;;;;8296981;28;20080;-66
2021/04/01 13:18:23;;;;;;;13.07;5.03;;;33.20;33.10;;;;;;8294427;28;20170;-66
2021/04/01 13:22:26;;;;;;;34.58;7.55;;;33.90;32.10;;;;;;8290080;28;20026;-67
2021/04/01 13:26:29;;;;;;;10.77;6.00;;;34.80;31.10;;;;;;8275557;28;20034;-67
2021/04/01 13:30:31;;;;;;;10.65;5.25;;;36.40;29.60;;;;;;8294880;28;20492;-66
2021/04/01 13:38:40;;;;;;;13.50;5.80;;;34.70;30.50;;;;;;8296953;28;20025;-66
2021/04/01 13:42:46;;;;;;;10.18;5.65;;;34.30;31.00;;;;;;8296835;28;20701;-66
2021/04/01 13:46:48;;;;;;;10.45;4.95;;;32.20;33.40;;;;;;8295927;28;20452;-66
2021/04/01 13:51:02;;;;;;;11.20;5.63;;;31.00;34.80;;;;;;8295559;28;20053;-66
2021/04/01 13:59:28;;;;;;;11.15;5.97;;;35.20;31.00;;;;;;8294516;28;20089;-66
2021/04/01 14:12:41;;;;;;;10.50;4.82;;;33.60;32.50;;;;;;8293625;28;20519;-66
2021/04/01 14:16:42;;;;;;;8.10;5.20;;;34.20;31.30;;;;;;8296697;28;20084;-66
2021/04/01 14:20:43;;;;;;;9.57;5.07;;;31.10;34.90;;;;;;8295450;28;20026;-66
2021/04/01 14:24:58;;;;;;;10.82;5.05;;;30.80;35.20;;;;;;8288552;28;20034;-66
2021/04/01 14:28:59;;;;;;;9.77;4.85;;;31.50;34.30;;;;;;8287910;28;20091;-66
2021/04/01 14:33:01;;;;;;;9.10;4.80;;;31.10;35.10;;;;;;8292825;28;20038;-66
2021/04/01 14:37:03;;;;;;;10.73;4.72;;;32.70;33.40;;;;;;8288739;28;20156;-66
2021/04/01 14:41:31;;;;;;;8.85;4.45;;;32.50;32.20;;;;;;8278221;28;20068;-66
2021/04/01 14:45:25;;;;;;;;;;;32.10;33.10;;;;;;8284829;28;20061;-66
2021/04/01 14:49:26;;;;;;;10.90;4.03;;;31.50;33.50;;;;;;8291327;28;19918;-67
2021/04/01 14:53:42;;;;;;;7.75;4.07;;;31.00;34.70;;;;;;8292672;28;20038;-68
2021/04/01 14:57:43;;;;;;;10.77;4.22;;;30.70;34.90;;;;;;8287571;28;20017;-69
2021/04/01 15:01:45;;;;;;;8.25;4.18;;;31.40;34.70;;;;;;8289580;28;20481;-66
2021/04/01 15:05:49;;;;;;;10.07;4.18;;;31.90;33.40;;;;;;8282028;28;20550;-66
2021/04/01 15:09:50;;;;;;;10.75;4.75;;;31.80;33.50;;;;;;8291104;28;20033;-66
2021/04/01 15:13:51;;;;;;;10.05;4.68;;;29.10;36.80;;;;;;8293710;28;20050;-69
2021/04/01 15:17:55;;;;;;;;;;;26.90;40.50;;;;;;8288196;28;20036;-68
2021/04/01 15:21:56;;;;;;;;;;;26.10;42.60;;;;;;8272599;28;19913;-68
2021/04/01 15:25:56;;;;;;;499.40;379.13;;;25.60;42.50;;;;;;8288498;28;21171;-68
2021/04/01 15:29:59;;;;;;;90.20;85.30;;;25.10;44.80;;;;;;8269762;28;20105;-68
2021/04/01 15:33:59;;;;;;;67.63;63.85;;;24.20;46.10;;;;;;8271346;28;20492;-70
2021/04/01 15:38:00;;;;;;;64.13;60.55;;;23.50;47.50;;;;;;8275680;28;20105;-69
2021/04/01 15:42:00;;;;;;;68.30;64.50;;;23.20;47.40;;;;;;8291240;28;20060;-68
2021/04/01 15:46:01;;;;;;;64.55;60.60;;;22.90;49.70;;;;;;8287805;28;20038;-68
2021/04/01 15:50:04;;;;;;;73.85;69.18;;;22.30;53.70;;;;;;8293569;28;20032;-69
2021/04/01 15:54:05;;;;;;;71.53;66.90;;;20.70;56.00;;;;;;8289076;28;20132;-68
2021/04/01 15:58:06;;;;;;;244.60;231.30;;;18.90;65.50;;;;;;8291977;28;20030;-67
2021/04/01 16:02:07;;;;;;;213.13;201.60;;;16.90;85.20;;;;;;8292053;28;20476;-68
2021/04/01 16:16:02;;;;;;;55.88;50.47;;;15.80;99.90;;;;;;8273477;28;20049;-69
2021/04/01 16:20:04;;;;;;;39.05;35.97;;;16.00;99.90;;;;;;8293492;28;20018;-71
2021/04/01 16:24:05;;;;;;;65.10;61.42;;;17.20;99.90;;;;;;8293153;28;20591;-68
2021/04/01 16:28:06;;;;;;;63.78;22.02;;;18.00;99.90;;;;;;8293699;28;20038;-68
2021/04/01 16:32:07;;;;;;;78.55;23.67;;;18.00;99.90;;;;;;8291595;28;20033;-68
2021/04/01 16:36:09;;;;;;;57.10;21.02;;;17.80;99.90;;;;;;8283759;28;20099;-67
2021/04/01 16:40:15;;;;;;;59.67;21.58;;;17.70;99.90;;;;;;8273247;28;20084;-67
2021/04/01 16:44:16;;;;;;;42.63;19.42;;;17.20;99.90;;;;;;8268572;28;20029;-67
2021/04/01 16:48:17;;;;;;;55.92;21.27;;;17.00;99.90;;;;;;8278904;28;20049;-67
2021/04/01 16:52:18;;;;;;;55.03;21.35;;;17.10;99.90;;;;;;8282353;28;21250;-66
2021/04/01 16:56:20;;;;;;;66.05;22.58;;;17.20;99.90;;;;;;8282549;28;20026;-67
2021/04/01 17:00:22;;;;;;;69.78;23.00;;;17.40;99.90;;;;;;8267409;28;20029;-65
2021/04/01 17:04:23;;;;;;;69.57;23.58;;;17.30;99.90;;;;;;8289451;28;20026;-67
2021/04/01 17:08:23;;;;;;;79.10;24.20;;;17.10;99.90;;;;;;8292751;28;20026;-66
2021/04/01 17:12:24;;;;;;;80.13;24.80;;;17.00;99.90;;;;;;8275051;28;20120;-67
2021/04/01 17:16:28;;;;;;;64.57;21.95;;;16.40;99.90;;;;;;8293400;28;20327;-67
2021/04/01 17:20:28;;;;;;;82.07;24.20;;;16.30;99.90;;;;;;8292658;28;20030;-67
2021/04/01 17:24:29;;;;;;;77.25;23.98;;;16.70;99.90;;;;;;8294042;28;20133;-67
2021/04/01 17:28:30;;;;;;;58.50;21.42;;;16.80;99.90;;;;;;8294638;28;20034;-67
2021/04/01 17:32:30;;;;;;;54.45;21.40;;;16.60;99.90;;;;;;8294423;28;20083;-68
2021/04/01 17:36:31;;;;;;;11.73;10.70;;;16.20;99.90;;;;;;8290604;28;20061;-67
2021/04/01 17:40:36;;;;;;;18.88;13.18;;;16.10;99.90;;;;;;8293086;28;20239;-67
2021/04/01 17:44:37;;;;;;;47.95;19.70;;;16.20;99.90;;;;;;8291775;28;20635;-66
2021/04/01 17:48:38;;;;;;;49.75;19.70;;;16.10;99.90;;;;;;8289999;28;20073;-67
2021/04/01 17:52:39;;;;;;;53.08;20.58;;;16.10;99.90;;;;;;8283501;28;20034;-66
2021/04/01 17:56:40;;;;;;;62.10;21.83;;;15.80;99.90;;;;;;8277999;28;20412;-67
2021/04/01 18:00:52;;;;;;;51.08;20.30;;;15.30;99.90;;;;;;8296665;28;20024;-66
2021/04/01 18:05:19;;;;;;;29.95;15.20;;;14.80;99.90;;;;;;8294153;28;20037;-68
2021/04/01 18:22:28;;;;;;;49.33;20.23;;;14.90;99.90;;;;;;8292422;28;20113;-66
2021/04/01 18:30:40;;;;;;;46.47;19.20;;;15.10;99.90;;;;;;8293037;28;20030;-67
2021/04/01 18:34:52;;;;;;;45.70;18.88;;;15.00;99.90;;;;;;8294060;28;20026;-66
2021/04/01 18:43:07;;;;;;;42.95;18.77;;;15.10;99.90;;;;;;8294198;28;20038;-66
2021/04/01 18:47:14;;;;;;;26.20;14.82;;;14.70;99.90;;;;;;8272166;28;20030;-67
2021/04/01 18:51:20;;;;;;;43.35;18.90;;;14.50;99.90;;;;;;8294219;28;20419;-66
2021/04/01 18:55:34;;;;;;;30.13;16.13;;;14.20;99.90;;;;;;8291076;28;20477;-66
2021/04/01 18:59:40;;;;;;;38.53;17.88;;;14.20;99.90;;;;;;8286327;28;20027;-67
2021/04/01 19:03:42;;;;;;;42.45;18.40;;;14.70;99.90;;;;;;8283945;28;20041;-66
2021/04/01 19:07:48;;;;;;;34.03;16.90;;;15.10;99.90;;;;;;8267613;28;20040;-66
2021/04/01 19:24:54;;;;;;;21.98;14.30;;;14.70;99.90;;;;;;8290753;28;20113;-66
2021/04/01 19:28:56;;;;;;;22.55;14.45;;;14.60;99.90;;;;;;8293112;28;20053;-67
2021/04/01 19:32:58;;;;;;;20.67;13.93;;;14.70;99.90;;;;;;8293174;28;20040;-66
2021/04/01 19:36:58;;;;;;;18.58;13.75;;;14.70;99.90;;;;;;8292892;28;20021;-66
2021/04/01 19:41:00;;;;;;;47.95;19.70;;;14.60;99.90;;;;;;8290033;28;20029;-67
2021/04/01 19:45:09;;;;;;;56.85;21.02;;;14.30;99.90;;;;;;8290798;28;20041;-66
2021/04/01 19:49:10;;;;;;;53.10;20.30;;;14.70;99.90;;;;;;8290913;28;20060;-67
2021/04/01 19:53:11;;;;;;;52.35;20.35;;;15.00;99.90;;;;;;8290500;28;20034;-67
2021/04/01 19:57:12;;;;;;;49.25;20.17;;;14.60;99.90;;;;;;8286421;28;20500;-67
2021/04/01 20:01:13;;;;;;;46.63;19.58;;;13.90;99.90;;;;;;8290794;28;20022;-66
2021/04/01 20:05:13;;;;;;;41.95;18.40;;;14.10;99.90;;;;;;8290743;28;20026;-66
2021/04/01 20:09:14;;;;;;;45.53;19.40;;;14.40;99.90;;;;;;8290844;28;20041;-66
2021/04/01 20:13:16;;;;;;;46.08;19.13;;;14.00;99.90;;;;;;8273185;28;20029;-66
2021/04/01 20:17:16;;;;;;;49.97;20.00;;;13.60;99.90;;;;;;8290969;28;20041;-66
2021/04/01 20:21:18;;;;;;;45.15;19.20;;;13.50;99.90;;;;;;8273290;28;20018;-65
2021/04/01 20:25:19;;;;;;;34.20;16.83;;;13.90;99.90;;;;;;8290079;28;20053;-67
2021/04/01 20:29:20;;;;;;;40.92;18.52;;;13.90;99.90;;;;;;8293470;28;20026;-67
2021/04/01 20:33:24;;;;;;;23.90;14.68;;;13.80;99.90;;;;;;8295111;28;20042;-67
2021/04/01 20:37:25;;;;;;;21.75;13.85;;;13.70;99.90;;;;;;8296159;28;20664;-66
2021/04/01 20:41:26;;;;;;;21.42;14.00;;;13.30;99.90;;;;;;8294838;28;20034;-66
2021/04/01 20:45:27;;;;;;;25.15;14.65;;;13.00;99.90;;;;;;8294916;28;20022;-67
2021/04/01 20:49:27;;;;;;;22.10;14.30;;;12.70;99.90;;;;;;8294884;28;20531;-66
2021/04/01 20:53:29;;;;;;;21.90;14.23;;;12.80;99.90;;;;;;8294997;28;20045;-66
2021/04/01 20:57:29;;;;;;;21.92;14.10;;;12.90;99.90;;;;;;8295601;28;20639;-66
2021/04/01 21:01:30;;;;;;;21.70;14.30;;;13.70;99.90;;;;;;8294324;28;20113;-65
2021/04/01 21:05:33;;;;;;;18.77;13.43;;;13.40;99.90;;;;;;8294674;28;20551;-66
2021/04/01 21:09:34;;;;;;;21.85;14.30;;;12.90;99.90;;;;;;8294708;28;20504;-66
2021/04/01 21:13:35;;;;;;;23.75;14.77;;;12.50;99.90;;;;;;8293817;28;20038;-65
2021/04/01 21:17:35;;;;;;;34.03;16.80;;;12.30;99.90;;;;;;8294354;28;20040;-66
2021/04/01 21:21:36;;;;;;;34.83;17.00;;;12.40;99.90;;;;;;8293880;28;20045;-66
2021/04/01 21:25:39;;;;;;;34.28;16.52;;;12.40;99.90;;;;;;8294566;28;20026;-66
2021/04/01 21:29:40;;;;;;;22.08;14.10;;;12.10;99.90;;;;;;8291279;28;20025;-67
2021/04/01 21:33:42;;;;;;;21.00;13.63;;;11.90;99.90;;;;;;8294408;28;20034;-66
2021/04/01 21:37:44;;;;;;;21.23;13.93;;;11.70;99.90;;;;;;8293147;28;20028;-66
2021/04/01 21:41:44;;;;;;;21.10;13.82;;;11.70;99.90;;;;;;8290858;28;20033;-67
2021/04/01 21:45:45;;;;;;;21.20;13.90;;;11.50;99.90;;;;;;8291788;28;20236;-66
2021/04/01 21:49:46;;;;;;;21.85;14.10;;;11.40;99.90;;;;;;8275797;28;20058;-67
2021/04/01 21:53:46;;;;;;;22.83;14.23;;;11.70;99.90;;;;;;8293601;28;20080;-67
2021/04/01 21:57:47;;;;;;;21.27;13.80;;;11.70;99.90;;;;;;8293784;28;20029;-66
2021/04/01 22:01:48;;;;;;;20.92;13.75;;;11.40;99.90;;;;;;8292423;28;20041;-66
2021/04/01 22:05:49;;;;;;;21.08;14.05;;;11.10;99.90;;;;;;8290067;28;20370;-65
2021/04/01 22:09:49;;;;;;;21.10;13.80;;;10.80;99.90;;;;;;8295163;28;20014;-65
2021/04/01 22:13:52;;;;;;;24.73;14.50;;;10.70;99.90;;;;;;8278352;28;20482;-66
2021/04/01 22:17:53;;;;;;;27.27;14.95;;;10.60;99.90;;;;;;8295718;28;20518;-65
2021/04/01 22:21:54;;;;;;;31.55;15.95;;;10.50;99.90;;;;;;8294571;28;20025;-65
2021/04/01 22:25:54;;;;;;;30.08;15.88;;;10.40;99.90;;;;;;8295193;28;20022;-65
2021/04/01 22:29:55;;;;;;;24.83;14.35;;;10.30;99.90;;;;;;8278300;28;20014;-65
2021/04/01 22:33:56;;;;;;;27.60;15.05;;;10.20;99.90;;;;;;8295921;28;20042;-65
2021/04/01 22:38:04;;;;;;;24.13;14.32;;;10.30;99.90;;;;;;8295775;28;20026;-65
2021/04/01 22:42:05;;;;;;;22.20;13.95;;;10.10;99.90;;;;;;8294021;28;20108;-66
2021/04/01 22:46:06;;;;;;;20.75;13.57;;;9.90;99.90;;;;;;8294537;28;20029;-65
2021/04/01 22:50:16;;;;;;;20.65;13.48;;;9.70;99.90;;;;;;8295447;28;20030;-65
2021/04/01 22:54:16;;;;;;;20.95;13.65;;;9.60;99.90;;;;;;8294286;28;20109;-65
2021/04/01 22:58:21;;;;;;;24.63;14.40;;;9.50;99.90;;;;;;8277598;28;20022;-65
2021/04/01 23:02:22;;;;;;;21.70;13.90;;;9.50;99.90;;;;;;8294689;28;20034;-65
2021/04/01 23:06:23;;;;;;;20.25;13.35;;;9.30;99.90;;;;;;8277741;28;20036;-65
2021/04/01 23:10:24;;;;;;;20.65;13.48;;;9.20;99.90;;;;;;8294902;28;20018;-65
2021/04/01 23:14:24;;;;;;;51.92;20.05;;;9.10;99.90;;;;;;8277085;28;20065;-65
2021/04/01 23:18:25;;;;;;;53.50;19.90;;;8.90;99.90;;;;;;8294197;28;20049;-65